sensor_id;sensor_type;location;lat;lon;timestamp;temperature;humidity
25877;DHT22;13692;47.480;19.216;2023-03-13T00:00:57;5.60;92.00
25877;DHT22;13692;47.480;19.216;2023-03-13T00:03:25;5.70;92.10
25877;DHT22;13692;47.480;19.216;2023-03-13T00:05:57;5.70;92.20
25877;DHT22;13692;47.480;19.216;2023-03-13T00:08:25;5.70;92.30
25877;DHT22;13692;47.480;19.216;2023-03-13T00:10:54;5.80;92.40
25877;DHT22;13692;47.480;19.216;2023-03-13T00:13:21;5.80;92.40
25877;DHT22;13692;47.480;19.216;2023-03-13T00:15:48;5.80;92.60
25877;DHT22;13692;47.480;19.216;2023-03-13T00:18:15;5.80;92.90
25877;DHT22;13692;47.480;19.216;2023-03-13T00:20:42;5.80;92.90
25877;DHT22;13692;47.480;19.216;2023-03-13T00:23:09;5.80;93.10
25877;DHT22;13692;47.480;19.216;2023-03-13T00:25:36;5.90;93.20
25877;DHT22;13692;47.480;19.216;2023-03-13T00:28:03;5.90;93.10
25877;DHT22;13692;47.480;19.216;2023-03-13T00:30:30;6.00;93.00
25877;DHT22;13692;47.480;19.216;2023-03-13T00:32:57;6.00;92.90
25877;DHT22;13692;47.480;19.216;2023-03-13T00:35:24;6.00;93.20
25877;DHT22;13692;47.480;19.216;2023-03-13T00:37:51;5.90;93.30
25877;DHT22;13692;47.480;19.216;2023-03-13T00:40:18;5.90;93.30
25877;DHT22;13692;47.480;19.216;2023-03-13T00:42:45;5.90;93.40
25877;DHT22;13692;47.480;19.216;2023-03-13T00:45:12;5.90;93.50
25877;DHT22;13692;47.480;19.216;2023-03-13T00:47:39;5.80;93.70
25877;DHT22;13692;47.480;19.216;2023-03-13T00:50:07;5.80;94.00
25877;DHT22;13692;47.480;19.216;2023-03-13T00:52:34;5.80;94.30
25877;DHT22;13692;47.480;19.216;2023-03-13T00:55:00;5.80;94.40
25877;DHT22;13692;47.480;19.216;2023-03-13T00:57:27;5.80;94.50
25877;DHT22;13692;47.480;19.216;2023-03-13T00:59:54;5.90;94.70
25877;DHT22;13692;47.480;19.216;2023-03-13T01:02:21;5.80;94.70
25877;DHT22;13692;47.480;19.216;2023-03-13T01:04:48;5.90;94.80
25877;DHT22;13692;47.480;19.216;2023-03-13T01:07:15;5.90;94.80
25877;DHT22;13692;47.480;19.216;2023-03-13T01:09:42;5.90;94.90
25877;DHT22;13692;47.480;19.216;2023-03-13T01:12:09;5.80;95.00
25877;DHT22;13692;47.480;19.216;2023-03-13T01:14:36;5.80;95.30
25877;DHT22;13692;47.480;19.216;2023-03-13T01:17:03;5.80;95.70
25877;DHT22;13692;47.480;19.216;2023-03-13T01:19:29;5.70;96.00
25877;DHT22;13692;47.480;19.216;2023-03-13T01:21:56;5.70;96.20
25877;DHT22;13692;47.480;19.216;2023-03-13T01:24:23;5.50;96.70
25877;DHT22;13692;47.480;19.216;2023-03-13T01:26:50;5.40;97.30
25877;DHT22;13692;47.480;19.216;2023-03-13T01:29:17;5.40;97.60
25877;DHT22;13692;47.480;19.216;2023-03-13T01:31:44;5.40;97.80
25877;DHT22;13692;47.480;19.216;2023-03-13T01:34:11;5.50;98.40
25877;DHT22;13692;47.480;19.216;2023-03-13T01:36:38;5.60;98.30
25877;DHT22;13692;47.480;19.216;2023-03-13T01:39:05;5.60;98.50
25877;DHT22;13692;47.480;19.216;2023-03-13T01:41:33;5.70;98.60
25877;DHT22;13692;47.480;19.216;2023-03-13T01:44:00;5.80;98.60
25877;DHT22;13692;47.480;19.216;2023-03-13T01:46:28;5.70;98.70
25877;DHT22;13692;47.480;19.216;2023-03-13T01:49:11;5.80;98.90
25877;DHT22;13692;47.480;19.216;2023-03-13T01:51:44;5.80;98.90
25877;DHT22;13692;47.480;19.216;2023-03-13T01:54:14;5.80;99.10
25877;DHT22;13692;47.480;19.216;2023-03-13T01:56:48;5.80;99.40
25877;DHT22;13692;47.480;19.216;2023-03-13T01:59:19;5.90;99.40
25877;DHT22;13692;47.480;19.216;2023-03-13T02:01:49;5.70;99.60
25877;DHT22;13692;47.480;19.216;2023-03-13T02:04:19;5.70;99.90
25877;DHT22;13692;47.480;19.216;2023-03-13T02:06:52;5.70;99.90
25877;DHT22;13692;47.480;19.216;2023-03-13T02:09:23;5.70;99.90
25877;DHT22;13692;47.480;19.216;2023-03-13T02:12:03;5.70;99.90
25877;DHT22;13692;47.480;19.216;2023-03-13T02:14:34;5.70;99.90
25877;DHT22;13692;47.480;19.216;2023-03-13T02:17:04;5.70;99.90
25877;DHT22;13692;47.480;19.216;2023-03-13T02:19:47;5.80;99.90
25877;DHT22;13692;47.480;19.216;2023-03-13T02:27:57;5.70;99.90
25877;DHT22;13692;47.480;19.216;2023-03-13T02:30:26;5.70;99.90
25877;DHT22;13692;47.480;19.216;2023-03-13T02:32:54;5.70;99.90
25877;DHT22;13692;47.480;19.216;2023-03-13T02:35:22;5.70;99.90
25877;DHT22;13692;47.480;19.216;2023-03-13T02:37:53;5.70;99.90
25877;DHT22;13692;47.480;19.216;2023-03-13T02:40:24;5.80;99.90
25877;DHT22;13692;47.480;19.216;2023-03-13T02:42:53;5.80;99.90
25877;DHT22;13692;47.480;19.216;2023-03-13T02:45:22;5.70;99.90
25877;DHT22;13692;47.480;19.216;2023-03-13T02:47:48;5.70;99.90
25877;DHT22;13692;47.480;19.216;2023-03-13T02:50:16;5.80;99.90
25877;DHT22;13692;47.480;19.216;2023-03-13T02:52:48;5.80;99.90
25877;DHT22;13692;47.480;19.216;2023-03-13T02:55:23;5.80;99.90
25877;DHT22;13692;47.480;19.216;2023-03-13T02:57:51;5.80;99.90
25877;DHT22;13692;47.480;19.216;2023-03-13T03:00:18;5.60;99.90
25877;DHT22;13692;47.480;19.216;2023-03-13T03:02:46;5.60;99.90
25877;DHT22;13692;47.480;19.216;2023-03-13T03:05:13;5.60;99.90
25877;DHT22;13692;47.480;19.216;2023-03-13T03:07:40;5.60;99.90
25877;DHT22;13692;47.480;19.216;2023-03-13T03:10:07;5.60;99.90
25877;DHT22;13692;47.480;19.216;2023-03-13T03:12:34;5.60;99.90
25877;DHT22;13692;47.480;19.216;2023-03-13T03:15:01;5.60;99.90
25877;DHT22;13692;47.480;19.216;2023-03-13T03:17:30;5.70;99.90
25877;DHT22;13692;47.480;19.216;2023-03-13T03:19:57;5.70;99.90
25877;DHT22;13692;47.480;19.216;2023-03-13T03:22:24;5.80;99.90
25877;DHT22;13692;47.480;19.216;2023-03-13T03:24:51;5.80;99.90
25877;DHT22;13692;47.480;19.216;2023-03-13T03:27:18;5.90;99.90
25877;DHT22;13692;47.480;19.216;2023-03-13T03:29:44;5.90;99.90
25877;DHT22;13692;47.480;19.216;2023-03-13T03:32:11;5.90;99.90
25877;DHT22;13692;47.480;19.216;2023-03-13T03:34:38;5.80;99.90
25877;DHT22;13692;47.480;19.216;2023-03-13T03:37:05;5.90;99.90
25877;DHT22;13692;47.480;19.216;2023-03-13T03:39:32;5.80;99.90
25877;DHT22;13692;47.480;19.216;2023-03-13T03:41:59;5.70;99.90
25877;DHT22;13692;47.480;19.216;2023-03-13T03:44:26;5.60;99.90
25877;DHT22;13692;47.480;19.216;2023-03-13T03:46:53;5.60;99.90
25877;DHT22;13692;47.480;19.216;2023-03-13T03:49:20;5.60;99.90
25877;DHT22;13692;47.480;19.216;2023-03-13T03:51:47;5.60;99.90
25877;DHT22;13692;47.480;19.216;2023-03-13T03:54:15;5.50;99.90
25877;DHT22;13692;47.480;19.216;2023-03-13T03:56:42;5.40;99.90
25877;DHT22;13692;47.480;19.216;2023-03-13T03:59:08;5.40;99.90
25877;DHT22;13692;47.480;19.216;2023-03-13T04:01:35;5.30;99.90
25877;DHT22;13692;47.480;19.216;2023-03-13T04:04:02;5.30;99.90
25877;DHT22;13692;47.480;19.216;2023-03-13T04:06:29;5.20;99.90
25877;DHT22;13692;47.480;19.216;2023-03-13T04:08:56;5.20;99.90
25877;DHT22;13692;47.480;19.216;2023-03-13T04:11:23;5.10;99.90
25877;DHT22;13692;47.480;19.216;2023-03-13T04:13:50;5.10;99.90
25877;DHT22;13692;47.480;19.216;2023-03-13T04:16:17;5.00;99.90
25877;DHT22;13692;47.480;19.216;2023-03-13T04:18:44;5.00;99.90
25877;DHT22;13692;47.480;19.216;2023-03-13T04:21:11;4.90;99.90
25877;DHT22;13692;47.480;19.216;2023-03-13T04:23:37;4.90;99.90
25877;DHT22;13692;47.480;19.216;2023-03-13T04:26:04;5.00;99.90
25877;DHT22;13692;47.480;19.216;2023-03-13T04:28:31;5.00;99.90
25877;DHT22;13692;47.480;19.216;2023-03-13T04:30:58;5.00;99.90
25877;DHT22;13692;47.480;19.216;2023-03-13T04:33:27;5.00;99.90
25877;DHT22;13692;47.480;19.216;2023-03-13T04:35:53;5.00;99.90
25877;DHT22;13692;47.480;19.216;2023-03-13T04:38:20;5.00;99.90
25877;DHT22;13692;47.480;19.216;2023-03-13T04:40:47;5.00;99.90
25877;DHT22;13692;47.480;19.216;2023-03-13T04:43:14;4.90;99.90
25877;DHT22;13692;47.480;19.216;2023-03-13T04:45:41;4.90;99.90
25877;DHT22;13692;47.480;19.216;2023-03-13T04:48:08;4.90;99.90
25877;DHT22;13692;47.480;19.216;2023-03-13T04:50:35;4.90;99.90
25877;DHT22;13692;47.480;19.216;2023-03-13T04:53:03;4.90;99.90
25877;DHT22;13692;47.480;19.216;2023-03-13T04:55:30;4.90;99.90
25877;DHT22;13692;47.480;19.216;2023-03-13T04:57:57;4.90;99.90
25877;DHT22;13692;47.480;19.216;2023-03-13T05:00:24;4.90;99.90
25877;DHT22;13692;47.480;19.216;2023-03-13T05:02:50;5.00;99.90
25877;DHT22;13692;47.480;19.216;2023-03-13T05:05:17;5.00;99.90
25877;DHT22;13692;47.480;19.216;2023-03-13T05:07:44;5.00;99.90
25877;DHT22;13692;47.480;19.216;2023-03-13T05:10:11;5.00;99.90
25877;DHT22;13692;47.480;19.216;2023-03-13T05:12:38;5.10;99.90
25877;DHT22;13692;47.480;19.216;2023-03-13T05:15:05;5.10;99.90
25877;DHT22;13692;47.480;19.216;2023-03-13T05:17:33;5.20;99.90
25877;DHT22;13692;47.480;19.216;2023-03-13T05:20:00;5.20;99.90
25877;DHT22;13692;47.480;19.216;2023-03-13T05:22:27;5.30;99.90
25877;DHT22;13692;47.480;19.216;2023-03-13T05:24:54;5.30;99.90
25877;DHT22;13692;47.480;19.216;2023-03-13T05:27:20;5.40;99.90
25877;DHT22;13692;47.480;19.216;2023-03-13T05:29:47;5.40;99.90
25877;DHT22;13692;47.480;19.216;2023-03-13T05:32:14;5.40;99.90
25877;DHT22;13692;47.480;19.216;2023-03-13T05:34:41;5.30;99.90
25877;DHT22;13692;47.480;19.216;2023-03-13T05:37:08;5.30;99.90
25877;DHT22;13692;47.480;19.216;2023-03-13T05:39:35;5.30;99.90
25877;DHT22;13692;47.480;19.216;2023-03-13T05:42:02;5.30;99.90
25877;DHT22;13692;47.480;19.216;2023-03-13T05:44:29;5.40;99.90
25877;DHT22;13692;47.480;19.216;2023-03-13T05:46:56;5.40;99.90
25877;DHT22;13692;47.480;19.216;2023-03-13T05:49:23;5.40;99.90
25877;DHT22;13692;47.480;19.216;2023-03-13T05:51:50;5.40;99.90
25877;DHT22;13692;47.480;19.216;2023-03-13T05:54:17;5.40;99.90
25877;DHT22;13692;47.480;19.216;2023-03-13T05:56:44;5.40;99.90
25877;DHT22;13692;47.480;19.216;2023-03-13T05:59:14;5.40;99.90
25877;DHT22;13692;47.480;19.216;2023-03-13T06:01:41;5.50;99.90
25877;DHT22;13692;47.480;19.216;2023-03-13T06:04:08;5.50;99.90
25877;DHT22;13692;47.480;19.216;2023-03-13T06:06:35;5.50;99.90
25877;DHT22;13692;47.480;19.216;2023-03-13T06:09:02;5.50;99.90
25877;DHT22;13692;47.480;19.216;2023-03-13T06:11:29;5.50;99.90
25877;DHT22;13692;47.480;19.216;2023-03-13T06:13:56;5.50;99.90
25877;DHT22;13692;47.480;19.216;2023-03-13T06:16:23;5.60;99.90
25877;DHT22;13692;47.480;19.216;2023-03-13T06:18:50;5.60;99.90
25877;DHT22;13692;47.480;19.216;2023-03-13T06:21:17;5.70;99.90
25877;DHT22;13692;47.480;19.216;2023-03-13T06:23:44;5.70;99.90
25877;DHT22;13692;47.480;19.216;2023-03-13T06:26:11;5.80;99.90
25877;DHT22;13692;47.480;19.216;2023-03-13T06:28:38;5.90;99.90
25877;DHT22;13692;47.480;19.216;2023-03-13T06:31:06;5.90;99.90
25877;DHT22;13692;47.480;19.216;2023-03-13T06:33:33;6.10;99.90
25877;DHT22;13692;47.480;19.216;2023-03-13T06:36:01;6.40;99.90
25877;DHT22;13692;47.480;19.216;2023-03-13T06:38:28;6.60;99.90
25877;DHT22;13692;47.480;19.216;2023-03-13T06:40:56;6.80;99.90
25877;DHT22;13692;47.480;19.216;2023-03-13T06:43:23;7.20;99.90
25877;DHT22;13692;47.480;19.216;2023-03-13T06:45:50;7.40;99.90
25877;DHT22;13692;47.480;19.216;2023-03-13T06:48:17;7.70;99.90
25877;DHT22;13692;47.480;19.216;2023-03-13T06:50:44;7.80;99.90
25877;DHT22;13692;47.480;19.216;2023-03-13T06:53:15;8.00;99.90
25877;DHT22;13692;47.480;19.216;2023-03-13T06:55:43;8.40;99.90
25877;DHT22;13692;47.480;19.216;2023-03-13T06:58:11;8.60;99.90
25877;DHT22;13692;47.480;19.216;2023-03-13T07:00:56;8.80;99.90
25877;DHT22;13692;47.480;19.216;2023-03-13T07:03:23;9.10;99.90
25877;DHT22;13692;47.480;19.216;2023-03-13T07:05:57;9.10;99.90
25877;DHT22;13692;47.480;19.216;2023-03-13T07:08:25;9.10;99.90
25877;DHT22;13692;47.480;19.216;2023-03-13T07:10:56;9.20;99.90
25877;DHT22;13692;47.480;19.216;2023-03-13T07:13:23;9.40;99.90
25877;DHT22;13692;47.480;19.216;2023-03-13T07:15:51;9.50;99.90
25877;DHT22;13692;47.480;19.216;2023-03-13T07:18:18;9.40;99.90
25877;DHT22;13692;47.480;19.216;2023-03-13T07:20:54;9.50;99.90
25877;DHT22;13692;47.480;19.216;2023-03-13T07:23:22;9.90;99.90
25877;DHT22;13692;47.480;19.216;2023-03-13T07:26:01;10.20;99.20
25877;DHT22;13692;47.480;19.216;2023-03-13T07:28:29;10.30;98.70
25877;DHT22;13692;47.480;19.216;2023-03-13T07:31:07;10.50;98.80
25877;DHT22;13692;47.480;19.216;2023-03-13T07:33:36;10.90;96.80
25877;DHT22;13692;47.480;19.216;2023-03-13T07:36:03;11.00;95.70
25877;DHT22;13692;47.480;19.216;2023-03-13T07:38:30;11.20;95.00
25877;DHT22;13692;47.480;19.216;2023-03-13T07:40:58;11.50;94.90
25877;DHT22;13692;47.480;19.216;2023-03-13T07:43:25;11.90;93.90
25877;DHT22;13692;47.480;19.216;2023-03-13T07:46:03;11.80;92.50
25877;DHT22;13692;47.480;19.216;2023-03-13T07:48:41;11.90;92.60
25877;DHT22;13692;47.480;19.216;2023-03-13T07:51:13;12.20;92.10
25877;DHT22;13692;47.480;19.216;2023-03-13T07:53:41;12.60;90.80
25877;DHT22;13692;47.480;19.216;2023-03-13T07:56:13;12.90;90.20
25877;DHT22;13692;47.480;19.216;2023-03-13T07:58:41;13.10;87.50
25877;DHT22;13692;47.480;19.216;2023-03-13T08:01:18;13.30;85.70
25877;DHT22;13692;47.480;19.216;2023-03-13T08:03:46;13.60;85.40
25877;DHT22;13692;47.480;19.216;2023-03-13T08:06:19;14.00;83.00
25877;DHT22;13692;47.480;19.216;2023-03-13T08:08:46;14.10;80.70
25877;DHT22;13692;47.480;19.216;2023-03-13T08:11:21;14.10;79.20
25877;DHT22;13692;47.480;19.216;2023-03-13T08:13:51;14.10;78.50
25877;DHT22;13692;47.480;19.216;2023-03-13T08:16:21;14.10;78.50
25877;DHT22;13692;47.480;19.216;2023-03-13T08:18:53;14.20;77.60
25877;DHT22;13692;47.480;19.216;2023-03-13T08:21:26;14.40;76.20
25877;DHT22;13692;47.480;19.216;2023-03-13T08:23:54;14.60;77.70
25877;DHT22;13692;47.480;19.216;2023-03-13T08:26:24;15.30;76.10
25877;DHT22;13692;47.480;19.216;2023-03-13T08:29:09;15.50;72.30
25877;DHT22;13692;47.480;19.216;2023-03-13T08:31:42;15.50;72.20
25877;DHT22;13692;47.480;19.216;2023-03-13T08:34:11;15.50;72.70
25877;DHT22;13692;47.480;19.216;2023-03-13T08:36:38;15.70;71.70
25877;DHT22;13692;47.480;19.216;2023-03-13T08:39:12;15.80;70.50
25877;DHT22;13692;47.480;19.216;2023-03-13T08:41:39;15.70;70.20
25877;DHT22;13692;47.480;19.216;2023-03-13T08:44:09;16.10;70.60
25877;DHT22;13692;47.480;19.216;2023-03-13T08:46:37;16.40;69.00
25877;DHT22;13692;47.480;19.216;2023-03-13T08:49:06;16.80;67.30
25877;DHT22;13692;47.480;19.216;2023-03-13T08:51:34;16.90;66.70
25877;DHT22;13692;47.480;19.216;2023-03-13T08:54:02;16.90;65.50
25877;DHT22;13692;47.480;19.216;2023-03-13T08:56:30;16.90;64.80
25877;DHT22;13692;47.480;19.216;2023-03-13T08:58:59;16.90;65.50
25877;DHT22;13692;47.480;19.216;2023-03-13T09:01:30;17.10;64.50
25877;DHT22;13692;47.480;19.216;2023-03-13T09:03:57;17.40;63.10
25877;DHT22;13692;47.480;19.216;2023-03-13T09:06:28;17.70;62.90
25877;DHT22;13692;47.480;19.216;2023-03-13T09:08:56;17.90;62.90
25877;DHT22;13692;47.480;19.216;2023-03-13T09:11:24;17.70;60.90
25877;DHT22;13692;47.480;19.216;2023-03-13T09:13:52;17.80;61.20
25877;DHT22;13692;47.480;19.216;2023-03-13T09:16:23;18.00;61.30
25877;DHT22;13692;47.480;19.216;2023-03-13T09:18:51;18.20;60.90
25877;DHT22;13692;47.480;19.216;2023-03-13T09:21:27;17.80;60.90
25877;DHT22;13692;47.480;19.216;2023-03-13T09:23:55;17.90;61.90
25877;DHT22;13692;47.480;19.216;2023-03-13T09:26:23;17.90;60.00
25877;DHT22;13692;47.480;19.216;2023-03-13T09:28:50;17.90;61.50
25877;DHT22;13692;47.480;19.216;2023-03-13T09:31:21;17.60;62.20
25877;DHT22;13692;47.480;19.216;2023-03-13T09:33:49;16.80;63.10
25877;DHT22;13692;47.480;19.216;2023-03-13T09:36:17;16.70;64.90
25877;DHT22;13692;47.480;19.216;2023-03-13T09:38:47;16.60;64.90
25877;DHT22;13692;47.480;19.216;2023-03-13T09:43:55;16.40;62.10
25877;DHT22;13692;47.480;19.216;2023-03-13T09:46:30;16.30;63.70
25877;DHT22;13692;47.480;19.216;2023-03-13T09:49:04;16.60;63.90
25877;DHT22;13692;47.480;19.216;2023-03-13T09:51:37;16.80;63.80
25877;DHT22;13692;47.480;19.216;2023-03-13T09:54:15;16.70;64.10
25877;DHT22;13692;47.480;19.216;2023-03-13T09:57:13;16.90;64.00
25877;DHT22;13692;47.480;19.216;2023-03-13T09:59:43;16.80;63.30
25877;DHT22;13692;47.480;19.216;2023-03-13T10:02:34;16.30;63.60
25877;DHT22;13692;47.480;19.216;2023-03-13T10:05:07;15.90;65.70
25877;DHT22;13692;47.480;19.216;2023-03-13T10:07:35;15.60;64.40
25877;DHT22;13692;47.480;19.216;2023-03-13T10:10:05;15.60;65.20
25877;DHT22;13692;47.480;19.216;2023-03-13T10:12:43;15.70;65.40
25877;DHT22;13692;47.480;19.216;2023-03-13T10:15:39;15.60;65.80
25877;DHT22;13692;47.480;19.216;2023-03-13T10:18:18;15.70;65.40
25877;DHT22;13692;47.480;19.216;2023-03-13T10:20:52;15.80;66.70
25877;DHT22;13692;47.480;19.216;2023-03-13T10:23:39;16.10;67.20
25877;DHT22;13692;47.480;19.216;2023-03-13T10:26:15;16.30;65.60
25877;DHT22;13692;47.480;19.216;2023-03-13T10:28:45;16.00;66.00
25877;DHT22;13692;47.480;19.216;2023-03-13T10:31:34;16.10;66.10
25877;DHT22;13692;47.480;19.216;2023-03-13T10:34:11;16.00;65.80
25877;DHT22;13692;47.480;19.216;2023-03-13T10:36:44;15.90;66.60
25877;DHT22;13692;47.480;19.216;2023-03-13T10:39:17;15.90;67.90
25877;DHT22;13692;47.480;19.216;2023-03-13T10:41:45;16.10;67.00
25877;DHT22;13692;47.480;19.216;2023-03-13T10:44:19;16.00;66.60
25877;DHT22;13692;47.480;19.216;2023-03-13T10:46:48;16.00;66.80
25877;DHT22;13692;47.480;19.216;2023-03-13T10:49:21;15.70;67.00
25877;DHT22;13692;47.480;19.216;2023-03-13T10:51:51;15.60;67.50
25877;DHT22;13692;47.480;19.216;2023-03-13T10:54:30;15.40;67.80
25877;DHT22;13692;47.480;19.216;2023-03-13T10:57:22;15.40;69.30
25877;DHT22;13692;47.480;19.216;2023-03-13T10:59:53;15.50;69.30
25877;DHT22;13692;47.480;19.216;2023-03-13T11:02:36;15.40;68.80
25877;DHT22;13692;47.480;19.216;2023-03-13T11:05:40;15.40;69.20
25877;DHT22;13692;47.480;19.216;2023-03-13T11:11:17;15.60;69.00
25877;DHT22;13692;47.480;19.216;2023-03-13T11:13:45;15.60;68.70
25877;DHT22;13692;47.480;19.216;2023-03-13T11:16:25;15.30;69.10
25877;DHT22;13692;47.480;19.216;2023-03-13T11:35:52;15.20;70.70
25877;DHT22;13692;47.480;19.216;2023-03-13T11:38:31;15.20;70.00
25877;DHT22;13692;47.480;19.216;2023-03-13T12:01:19;14.50;72.90
25877;DHT22;13692;47.480;19.216;2023-03-13T12:09:05;15.00;74.00
25877;DHT22;13692;47.480;19.216;2023-03-13T12:12:34;15.20;73.20
25877;DHT22;13692;47.480;19.216;2023-03-13T12:14:59;15.20;72.60
25877;DHT22;13692;47.480;19.216;2023-03-13T12:17:32;15.10;72.30
25877;DHT22;13692;47.480;19.216;2023-03-13T12:20:05;14.90;72.50
25877;DHT22;13692;47.480;19.216;2023-03-13T12:25:20;14.90;71.90
25877;DHT22;13692;47.480;19.216;2023-03-13T12:27:52;14.90;72.80
25877;DHT22;13692;47.480;19.216;2023-03-13T12:30:32;15.10;73.80
25877;DHT22;13692;47.480;19.216;2023-03-13T12:35:45;15.30;73.70
25877;DHT22;13692;47.480;19.216;2023-03-13T12:38:27;15.40;72.70
25877;DHT22;13692;47.480;19.216;2023-03-13T12:41:23;15.40;72.10
25877;DHT22;13692;47.480;19.216;2023-03-13T12:43:52;15.40;72.70
25877;DHT22;13692;47.480;19.216;2023-03-13T13:00:35;15.70;73.30
25877;DHT22;13692;47.480;19.216;2023-03-13T13:05:36;15.60;73.20
25877;DHT22;13692;47.480;19.216;2023-03-13T13:08:04;15.40;73.40
25877;DHT22;13692;47.480;19.216;2023-03-13T13:10:31;15.30;74.00
25877;DHT22;13692;47.480;19.216;2023-03-13T13:15:57;15.10;75.50
25877;DHT22;13692;47.480;19.216;2023-03-13T13:18:27;15.00;75.80
25877;DHT22;13692;47.480;19.216;2023-03-13T13:23:40;14.90;76.90
25877;DHT22;13692;47.480;19.216;2023-03-13T13:29:01;15.10;77.10
25877;DHT22;13692;47.480;19.216;2023-03-13T13:36:57;15.50;76.40
25877;DHT22;13692;47.480;19.216;2023-03-13T13:39:43;15.50;76.60
25877;DHT22;13692;47.480;19.216;2023-03-13T13:42:36;15.50;76.40
25877;DHT22;13692;47.480;19.216;2023-03-13T13:47:43;15.60;76.60
25877;DHT22;13692;47.480;19.216;2023-03-13T13:50:25;15.50;76.50
25877;DHT22;13692;47.480;19.216;2023-03-13T13:53:32;15.60;76.90
25877;DHT22;13692;47.480;19.216;2023-03-13T13:56:00;15.60;76.30
25877;DHT22;13692;47.480;19.216;2023-03-13T13:58:39;15.60;76.20
25877;DHT22;13692;47.480;19.216;2023-03-13T14:01:15;15.50;76.80
25877;DHT22;13692;47.480;19.216;2023-03-13T14:03:43;15.40;76.70
25877;DHT22;13692;47.480;19.216;2023-03-13T14:06:17;15.50;77.00
25877;DHT22;13692;47.480;19.216;2023-03-13T14:08:48;15.40;77.50
25877;DHT22;13692;47.480;19.216;2023-03-13T14:11:34;15.40;77.40
25877;DHT22;13692;47.480;19.216;2023-03-13T14:14:15;15.40;77.50
25877;DHT22;13692;47.480;19.216;2023-03-13T14:16:51;15.40;77.80
25877;DHT22;13692;47.480;19.216;2023-03-13T14:19:24;15.30;78.20
25877;DHT22;13692;47.480;19.216;2023-03-13T14:22:00;15.30;78.30
25877;DHT22;13692;47.480;19.216;2023-03-13T14:24:28;15.30;79.20
25877;DHT22;13692;47.480;19.216;2023-03-13T14:26:55;15.20;78.70
25877;DHT22;13692;47.480;19.216;2023-03-13T14:29:22;15.30;78.80
25877;DHT22;13692;47.480;19.216;2023-03-13T14:31:54;15.30;78.40
25877;DHT22;13692;47.480;19.216;2023-03-13T14:34:22;15.30;78.90
25877;DHT22;13692;47.480;19.216;2023-03-13T14:36:57;15.40;79.60
25877;DHT22;13692;47.480;19.216;2023-03-13T14:39:44;15.40;78.90
25877;DHT22;13692;47.480;19.216;2023-03-13T14:42:14;15.40;78.90
25877;DHT22;13692;47.480;19.216;2023-03-13T14:44:43;15.40;78.80
25877;DHT22;13692;47.480;19.216;2023-03-13T14:47:27;15.30;79.00
25877;DHT22;13692;47.480;19.216;2023-03-13T14:50:04;15.30;79.70
25877;DHT22;13692;47.480;19.216;2023-03-13T14:52:35;15.20;79.40
25877;DHT22;13692;47.480;19.216;2023-03-13T15:00:39;15.20;81.10
25877;DHT22;13692;47.480;19.216;2023-03-13T15:08:29;15.10;82.40
25877;DHT22;13692;47.480;19.216;2023-03-13T15:10:56;15.20;82.70
25877;DHT22;13692;47.480;19.216;2023-03-13T15:15:58;15.10;82.80
25877;DHT22;13692;47.480;19.216;2023-03-13T15:18:30;15.00;82.60
25877;DHT22;13692;47.480;19.216;2023-03-13T15:23:40;15.00;82.60
25877;DHT22;13692;47.480;19.216;2023-03-13T15:26:07;15.00;83.30
25877;DHT22;13692;47.480;19.216;2023-03-13T15:28:34;15.00;82.90
25877;DHT22;13692;47.480;19.216;2023-03-13T15:31:01;15.00;82.80
25877;DHT22;13692;47.480;19.216;2023-03-13T15:33:29;15.00;82.40
25877;DHT22;13692;47.480;19.216;2023-03-13T15:35:56;15.00;82.70
25877;DHT22;13692;47.480;19.216;2023-03-13T15:38:25;15.00;83.30
25877;DHT22;13692;47.480;19.216;2023-03-13T15:40:53;14.90;83.80
25877;DHT22;13692;47.480;19.216;2023-03-13T15:43:21;14.80;84.40
25877;DHT22;13692;47.480;19.216;2023-03-13T15:45:49;14.80;84.90
25877;DHT22;13692;47.480;19.216;2023-03-13T15:48:22;14.70;84.90
25877;DHT22;13692;47.480;19.216;2023-03-13T15:50:58;14.70;85.30
25877;DHT22;13692;47.480;19.216;2023-03-13T15:53:28;14.60;85.20
25877;DHT22;13692;47.480;19.216;2023-03-13T15:55:59;14.60;85.60
25877;DHT22;13692;47.480;19.216;2023-03-13T15:58:28;14.50;85.80
25877;DHT22;13692;47.480;19.216;2023-03-13T16:00:56;14.50;86.30
25877;DHT22;13692;47.480;19.216;2023-03-13T16:03:25;14.40;86.60
25877;DHT22;13692;47.480;19.216;2023-03-13T16:05:53;14.40;86.30
25877;DHT22;13692;47.480;19.216;2023-03-13T16:08:25;14.40;86.50
25877;DHT22;13692;47.480;19.216;2023-03-13T16:11:02;14.40;86.50
25877;DHT22;13692;47.480;19.216;2023-03-13T16:13:29;14.40;86.70
25877;DHT22;13692;47.480;19.216;2023-03-13T16:15:57;14.30;86.70
25877;DHT22;13692;47.480;19.216;2023-03-13T16:18:24;14.30;87.00
25877;DHT22;13692;47.480;19.216;2023-03-13T16:20:52;14.30;86.90
25877;DHT22;13692;47.480;19.216;2023-03-13T16:23:19;14.20;87.30
25877;DHT22;13692;47.480;19.216;2023-03-13T16:25:46;14.20;87.30
25877;DHT22;13692;47.480;19.216;2023-03-13T16:28:15;14.20;87.20
25877;DHT22;13692;47.480;19.216;2023-03-13T16:30:42;14.20;87.60
25877;DHT22;13692;47.480;19.216;2023-03-13T16:33:10;14.20;87.60
25877;DHT22;13692;47.480;19.216;2023-03-13T16:35:38;14.20;87.60
25877;DHT22;13692;47.480;19.216;2023-03-13T16:38:05;14.20;88.00
25877;DHT22;13692;47.480;19.216;2023-03-13T16:40:35;14.20;87.90
25877;DHT22;13692;47.480;19.216;2023-03-13T16:43:02;14.10;87.70
25877;DHT22;13692;47.480;19.216;2023-03-13T16:45:29;14.10;88.10
25877;DHT22;13692;47.480;19.216;2023-03-13T16:47:56;14.00;88.10
25877;DHT22;13692;47.480;19.216;2023-03-13T16:52:53;14.00;88.90
25877;DHT22;13692;47.480;19.216;2023-03-13T16:55:22;14.00;88.70
25877;DHT22;13692;47.480;19.216;2023-03-13T16:57:56;14.00;89.00
25877;DHT22;13692;47.480;19.216;2023-03-13T17:00:25;14.00;88.80
25877;DHT22;13692;47.480;19.216;2023-03-13T17:02:53;13.90;89.10
25877;DHT22;13692;47.480;19.216;2023-03-13T17:05:20;13.90;89.60
25877;DHT22;13692;47.480;19.216;2023-03-13T17:07:49;13.90;89.60
25877;DHT22;13692;47.480;19.216;2023-03-13T17:10:22;13.80;89.40
25877;DHT22;13692;47.480;19.216;2023-03-13T17:12:49;13.80;89.60
25877;DHT22;13692;47.480;19.216;2023-03-13T17:15:18;13.80;89.80
25877;DHT22;13692;47.480;19.216;2023-03-13T17:17:47;13.80;89.70
25877;DHT22;13692;47.480;19.216;2023-03-13T17:20:21;13.80;89.60
25877;DHT22;13692;47.480;19.216;2023-03-13T17:22:49;13.80;89.90
25877;DHT22;13692;47.480;19.216;2023-03-13T17:25:17;13.80;90.00
25877;DHT22;13692;47.480;19.216;2023-03-13T17:27:44;13.70;90.10
25877;DHT22;13692;47.480;19.216;2023-03-13T17:30:25;13.70;90.20
25877;DHT22;13692;47.480;19.216;2023-03-13T17:32:52;13.60;90.30